CJD3 weather

Birch Hills Airport
Birch Hills, Saskatchewan, Canada

Public forecast

Using degrees Celsius for public forecast. Weather courtesy of forecast.io.

METAR (pilot weather report)

Closest report is Prince Albert Glass Field, 15.7 nm (29.1 km) NNW. Retrieved 2019/05/25 23:00 UTC (31 minutes ago):

CYPA 252300Z 11008KT 15SM FEW040 SCT250 13/03 A3004 RMK CU2CI2 SLP189

TAF (pilot weather forecast)

Closest forecast is Prince Albert Glass Field, 15.7 nm (29.1 km) NNW. Retrieved 2019/05/25 19:42 UTC (4 hours ago):

TAF CYPA 251838Z 2519/2607 06010KT P6SM BKN020 BECMG 2519/2521 SCT050 FM252100 06008KT P6SM BKN050 TEMPO 2521/2605 SCT050 FM260500 14005KT P6SM VCSH BKN050 RMK NXT FCST BY 260100Z